createdAt,value
2018-12-30T00:06:05.576Z,94238.82
2018-12-30T00:21:09.172Z,94230.95
2018-12-30T00:36:12.955Z,94242.05
2018-12-30T00:51:17.502Z,94234.24
2018-12-30T01:06:22.251Z,94232.98
2018-12-30T01:21:25.449Z,94219.77
2018-12-30T01:36:28.404Z,94206.55
2018-12-30T01:51:33.195Z,94201.63
2018-12-30T02:06:37.120Z,94188.00
2018-12-30T02:21:41.268Z,94171.56
2018-12-30T02:36:44.494Z,94153.42
2018-12-30T02:51:50.384Z,94138.17
2018-12-30T03:06:53.700Z,94122.09
2018-12-30T03:21:59.368Z,94123.73
2018-12-30T03:37:02.817Z,94109.27
2018-12-30T03:52:08.551Z,94101.45
2018-12-30T04:07:12.504Z,94091.55
2018-12-30T04:22:18.317Z,94100.61
2018-12-30T04:37:21.074Z,94101.02
2018-12-30T04:52:25.825Z,94093.18
2018-12-30T05:07:29.983Z,94098.98
2018-12-30T05:22:33.905Z,94098.16
2018-12-30T05:37:37.792Z,94092.37
2018-12-30T05:52:41.977Z,94102.66
2018-12-30T06:07:45.240Z,94103.06
2018-12-30T06:22:49.704Z,94112.55
2018-12-30T06:37:54.652Z,94126.59
2018-12-30T06:52:57.753Z,94128.66
2018-12-30T07:08:01.907Z,94132.86
2018-12-30T07:23:06.047Z,94123.38
2018-12-30T07:38:09.901Z,94137.39
2018-12-30T07:53:13.773Z,94136.97
2018-12-30T08:08:17.655Z,94141.03
2018-12-30T08:23:23.521Z,94151.64
2018-12-30T08:38:27.079Z,94156.34
2018-12-30T08:53:29.959Z,94146.38
2018-12-30T09:08:33.116Z,94150.11
2018-12-30T09:23:37.420Z,94137.18
2018-12-30T09:38:40.695Z,94133.64
2018-12-30T09:53:45.293Z,94119.45
2018-12-30T10:08:48.179Z,94102.12
2018-12-30T10:23:53.090Z,94096.82
2018-12-30T10:38:55.627Z,94068.10
2018-12-30T10:54:00.774Z,94053.73
2018-12-30T11:09:04.967Z,94039.41
2018-12-30T11:24:09.718Z,94036.95
2018-12-30T11:39:12.269Z,94041.89
2018-12-30T11:54:16.595Z,94029.94
2018-12-30T12:09:19.795Z,94024.61
2018-12-30T12:24:24.471Z,94026.20
2018-12-30T12:39:28.519Z,94029.42
2018-12-30T12:54:32.524Z,94026.91
2018-12-30T13:09:36.329Z,94023.48
2018-12-30T13:24:40.005Z,94023.88
2018-12-30T13:39:44.448Z,94022.31
2018-12-30T13:54:47.832Z,94020.39
2018-12-30T14:09:50.974Z,94023.71
2018-12-30T14:24:55.414Z,94023.80
2018-12-30T14:40:00.370Z,94024.24
2018-12-30T14:55:03.906Z,94035.44
2018-12-30T15:10:10.503Z,94037.53
2018-12-30T15:25:13.107Z,94040.84
2018-12-30T15:40:15.966Z,94051.98
2018-12-30T15:55:20.758Z,94051.11
2018-12-30T16:10:24.278Z,94057.72
2018-12-30T16:25:28.213Z,94054.00
2018-12-30T16:40:32.882Z,94064.33
2018-12-30T16:55:36.454Z,94062.66
2018-12-30T17:10:40.002Z,94070.92
2018-12-30T17:25:43.198Z,94078.76
2018-12-30T17:40:46.374Z,94079.15
2018-12-30T17:55:50.939Z,94086.16
2018-12-30T18:10:54.050Z,94093.16
2018-12-30T18:25:58.777Z,94094.80
2018-12-30T18:41:01.834Z,94087.31
2018-12-30T18:56:06.988Z,94084.88
2018-12-30T19:11:11.123Z,94077.42
2018-12-30T19:26:14.662Z,94076.61
2018-12-30T19:41:17.567Z,94068.36
2018-12-30T19:56:21.980Z,94065.42
2018-12-30T20:11:25.697Z,94049.69
2018-12-30T20:26:30.075Z,94055.51
2018-12-30T20:41:33.154Z,94044.03
2018-12-30T20:56:37.899Z,94053.92
2018-12-30T21:11:42.368Z,94051.03
2018-12-30T21:26:45.733Z,94058.05
2018-12-30T21:41:49.157Z,94058.81
2018-12-30T21:56:54.903Z,94053.47
2018-12-30T22:11:56.667Z,94048.13
2018-12-30T22:26:59.230Z,94042.84
2018-12-30T22:42:03.410Z,94035.80
2018-12-30T22:57:06.271Z,94032.95
2018-12-30T23:12:10.681Z,94028.03
2018-12-30T23:27:13.534Z,94025.54
2018-12-30T23:42:16.514Z,94025.14
2018-12-30T23:57:20.953Z,94023.88
